Time;durP1;ratioP1;P1;durP2;ratioP2;P2;SDS_P1;SDS_P2;PMS_P1;PMS_P2;Temp;Humidity;BMP_temperature;BMP_pressure;BME280_temperature;BME280_humidity;BME280_pressure;Samples;Min_cycle;Max_cycle;Signal;HPM_P1;HPM_P2
2024/01/15 00:02:23;;;;;;;24.77;13.90;;;;;;;28.38;67.77;101074.06;5038719;28;66216;-40
2024/01/15 00:04:54;;;;;;;18.05;13.45;;;;;;;28.42;67.54;101083.47;5040198;28;70009;-38
2024/01/15 00:07:24;;;;;;;32.13;14.10;;;;;;;28.46;67.44;101089.31;5040227;28;66495;-38
2024/01/15 00:09:55;;;;;;;22.88;15.93;;;;;;;28.49;68.12;101095.13;5033058;28;69345;-38
2024/01/15 00:12:26;;;;;;;24.33;15.73;;;;;;;28.54;68.26;101088.31;5022454;28;65256;-38
2024/01/15 00:14:56;;;;;;;24.30;15.93;;;;;;;28.54;68.24;101085.63;5032947;28;70282;-38
2024/01/15 00:17:36;;;;;;;29.23;17.10;;;;;;;28.47;67.93;101075.63;5035227;28;66129;-46
2024/01/15 00:20:07;;;;;;;27.40;16.05;;;;;;;28.60;67.98;101099.13;5039423;28;70368;-39
2024/01/15 00:22:39;;;;;;;36.37;17.30;;;;;;;28.51;68.76;101100.34;5035694;28;65794;-38
2024/01/15 00:25:10;;;;;;;36.30;17.40;;;;;;;28.66;67.78;101103.72;5039415;28;71384;-38
2024/01/15 00:27:40;;;;;;;26.95;16.70;;;;;;;28.60;68.36;101109.09;5040806;28;66331;-38
2024/01/15 00:30:12;;;;;;;30.17;16.85;;;;;;;28.65;68.11;101107.47;5040631;28;70529;-44
2024/01/15 00:32:43;;;;;;;36.80;16.77;;;;;;;28.70;67.83;101112.28;5040717;28;65940;-40
2024/01/15 00:35:13;;;;;;;36.72;18.00;;;;;;;28.73;67.96;101128.06;5039514;28;69956;-41
2024/01/15 00:37:44;;;;;;;39.17;17.98;;;;;;;28.65;68.20;101109.34;5030676;28;66313;-41
2024/01/15 00:40:14;;;;;;;30.35;19.88;;;;;;;28.72;68.15;101121.00;5047949;28;70217;-41
2024/01/15 00:42:45;;;;;;;36.72;20.40;;;;;;;28.42;68.36;101083.47;5048555;28;65620;-40
2024/01/15 00:45:16;;;;;;;32.42;20.17;;;;;;;28.73;68.93;101136.16;5045475;28;68642;-40
2024/01/15 00:47:46;;;;;;;31.45;19.52;;;;;;;28.76;67.94;101143.03;5044830;28;65881;-40
2024/01/15 00:50:17;;;;;;;28.67;18.55;;;;;;;28.75;68.05;101144.88;5067981;28;70186;-41
2024/01/15 00:52:47;;;;;;;30.00;16.40;;;;;;;28.72;67.77;101142.59;5038711;28;66768;-40
2024/01/15 00:55:18;;;;;;;27.23;16.35;;;;;;;28.74;67.67;101145.94;5057207;28;70399;-40
2024/01/15 00:57:48;;;;;;;20.08;15.38;;;;;;;28.79;67.44;101165.06;5037183;28;66746;-40
2024/01/15 01:00:19;;;;;;;28.52;15.45;;;;;;;28.76;67.71;101160.06;5036282;28;70246;-40
2024/01/15 01:02:49;;;;;;;23.60;14.30;;;;;;;28.85;67.67;101166.97;5030731;28;66241;-40
2024/01/15 01:05:20;;;;;;;19.42;13.73;;;;;;;28.76;68.06;101151.13;5025120;28;70075;-40
2024/01/15 01:07:50;;;;;;;23.15;13.93;;;;;;;28.81;67.48;101173.81;5021028;28;66326;-40
2024/01/15 01:10:21;;;;;;;31.77;14.40;;;;;;;28.85;67.96;101175.06;5038840;28;70675;-41
2024/01/15 01:12:52;;;;;;;18.23;14.05;;;;;;;28.87;67.28;101173.00;5039130;28;65932;-40
2024/01/15 01:15:22;;;;;;;17.90;13.55;;;;;;;28.80;67.29;101160.50;5050055;28;69060;-40
2024/01/15 01:17:53;;;;;;;22.33;12.60;;;;;;;28.89;67.75;101173.66;5044610;28;65172;-41
2024/01/15 01:20:23;;;;;;;16.90;13.48;;;;;;;28.84;67.52;101162.59;5060877;28;70620;-40
2024/01/15 01:22:54;;;;;;;20.65;13.65;;;;;;;28.91;67.65;101171.56;5062375;28;66825;-41
2024/01/15 01:25:25;;;;;;;13.65;12.25;;;;;;;28.90;67.42;101169.06;5047746;28;70109;-41
2024/01/15 01:27:55;;;;;;;20.70;12.15;;;;;;;28.93;67.66;101177.59;5062686;28;66368;-40
2024/01/15 01:30:26;;;;;;;16.58;12.60;;;;;;;28.94;67.01;101176.56;5062510;28;69772;-41
2024/01/15 01:32:56;;;;;;;15.05;13.50;;;;;;;28.94;67.50;101163.03;5045443;28;65739;-41
2024/01/15 01:35:27;;;;;;;14.30;12.80;;;;;;;28.64;67.44;101113.06;5046739;28;69955;-41
2024/01/15 01:37:57;;;;;;;16.15;12.23;;;;;;;29.02;66.82;101169.31;5051266;28;66399;-40
2024/01/15 01:40:27;;;;;;;23.20;14.05;;;;;;;29.01;66.92;101178.47;5049693;28;70608;-40
2024/01/15 01:42:58;;;;;;;18.38;13.15;;;;;;;28.99;67.23;101175.13;5054911;28;65460;-41
2024/01/15 01:45:28;;;;;;;15.35;12.48;;;;;;;29.04;67.24;101183.50;5056191;28;70294;-41
2024/01/15 01:48:00;;;;;;;19.63;13.27;;;;;;;28.96;67.31;101177.19;5043638;28;65322;-41
2024/01/15 01:50:31;;;;;;;16.55;13.27;;;;;;;28.60;67.33;101107.22;5056914;28;69121;-41
2024/01/15 01:53:04;;;;;;;17.60;13.27;;;;;;;28.96;66.86;101168.25;5035359;28;66307;-41
2024/01/15 01:55:36;;;;;;;13.60;12.50;;;;;;;29.10;67.03;101177.28;5054918;28;70596;-41
2024/01/15 01:58:07;;;;;;;15.05;12.55;;;;;;;29.09;67.20;101175.63;5042916;28;66402;-41
2024/01/15 02:00:38;;;;;;;18.17;13.20;;;;;;;29.07;67.20;101177.69;5024934;28;70123;-40
2024/01/15 02:03:09;;;;;;;16.30;12.95;;;;;;;29.12;66.81;101184.16;5043903;28;66537;-41
2024/01/15 02:05:43;;;;;;;14.82;13.27;;;;;;;29.13;67.24;101193.09;5036022;28;70084;-41
2024/01/15 02:08:13;;;;;;;17.58;14.02;;;;;;;29.15;67.22;101188.34;5050486;28;66653;-41
2024/01/15 02:10:44;;;;;;;18.77;13.63;;;;;;;29.14;67.26;101195.59;5042982;28;69170;-41
2024/01/15 02:13:15;;;;;;;15.45;13.02;;;;;;;29.05;67.07;101166.25;5037297;28;66647;-40
2024/01/15 02:15:46;;;;;;;19.88;14.23;;;;;;;29.17;66.98;101175.47;5036805;28;69282;-41
2024/01/15 02:18:16;;;;;;;16.52;13.50;;;;;;;29.16;66.98;101176.47;5037552;28;66972;-42
2024/01/15 02:20:47;;;;;;;16.77;14.60;;;;;;;29.19;66.86;101170.66;5036499;28;71006;-41
2024/01/15 02:23:18;;;;;;;15.30;13.73;;;;;;;29.15;66.64;101166.72;5039190;28;66387;-41
2024/01/15 02:25:48;;;;;;;17.75;13.75;;;;;;;29.19;66.94;101176.06;5042299;28;69633;-41
2024/01/15 02:28:18;;;;;;;17.15;13.45;;;;;;;29.18;66.60;101175.25;5037044;28;66939;-40
2024/01/15 02:30:49;;;;;;;16.95;13.60;;;;;;;29.23;66.55;101171.13;5039167;28;69660;-39
2024/01/15 02:33:19;;;;;;;15.98;13.63;;;;;;;29.27;66.53;101177.78;5037799;28;66590;-39
2024/01/15 02:35:51;;;;;;;18.42;13.85;;;;;;;29.18;67.00;101164.44;5052203;28;71524;-40
2024/01/15 02:38:21;;;;;;;19.80;14.32;;;;;;;29.30;67.21;101178.19;5056854;28;65817;-41
2024/01/15 02:40:52;;;;;;;18.52;13.88;;;;;;;29.09;67.13;101140.53;5049698;28;68934;-41
2024/01/15 02:43:22;;;;;;;16.88;14.20;;;;;;;29.33;67.11;101183.19;5062496;28;66157;-40
2024/01/15 02:45:53;;;;;;;15.93;13.73;;;;;;;29.35;67.02;101181.13;5041340;28;69757;-41
2024/01/15 02:48:23;;;;;;;17.38;13.25;;;;;;;29.38;67.13;101180.72;5033090;28;66694;-41
2024/01/15 02:50:54;;;;;;;14.65;13.32;;;;;;;29.37;66.49;101175.53;5032763;28;70141;-41
2024/01/15 02:53:24;;;;;;;16.50;14.88;;;;;;;29.40;66.49;101175.13;5056891;28;65812;-40
2024/01/15 02:55:55;;;;;;;19.30;14.70;;;;;;;29.42;66.42;101174.91;5038609;28;69613;-40
2024/01/15 02:58:25;;;;;;;16.00;14.30;;;;;;;29.44;66.46;101178.25;5040037;28;66518;-41
2024/01/15 03:00:56;;;;;;;16.33;13.38;;;;;;;29.45;66.76;101175.34;5041763;28;69619;-41
2024/01/15 03:03:26;;;;;;;13.98;12.55;;;;;;;29.42;66.60;101164.09;5039921;28;66609;-40
2024/01/15 03:05:58;;;;;;;15.88;13.90;;;;;;;29.44;66.72;101167.44;5037636;28;70046;-41
2024/01/15 03:08:29;;;;;;;15.93;13.33;;;;;;;29.40;66.43;101158.91;5058535;28;65433;-41
2024/01/15 03:11:00;;;;;;;17.15;13.95;;;;;;;29.51;66.97;101168.28;5042972;28;69814;-40
2024/01/15 03:13:31;;;;;;;15.00;13.50;;;;;;;29.55;66.68;101158.72;5049818;28;66230;-40
2024/01/15 03:16:01;;;;;;;23.70;13.70;;;;;;;29.56;66.79;101154.97;4951105;28;3280068;-41
2024/01/15 03:18:32;;;;;;;14.50;13.07;;;;;;;29.55;66.75;101148.75;5037522;28;67083;-40
2024/01/15 03:21:04;;;;;;;13.90;12.48;;;;;;;29.57;66.94;101149.38;5041099;28;70585;-40
2024/01/15 03:23:35;;;;;;;14.85;12.90;;;;;;;29.60;66.82;101151.66;5041051;28;66004;-41
2024/01/15 03:26:06;;;;;;;15.13;13.07;;;;;;;29.61;66.83;101137.13;5064832;28;70022;-41
2024/01/15 03:28:36;;;;;;;13.75;12.38;;;;;;;29.67;66.62;101140.91;5051331;28;65639;-41
2024/01/15 03:31:08;;;;;;;13.68;12.40;;;;;;;29.72;66.37;101141.09;5056655;28;70170;-41
2024/01/15 03:33:39;;;;;;;15.38;11.95;;;;;;;29.73;66.41;101136.56;5042039;28;66276;-40
2024/01/15 03:36:10;;;;;;;14.55;12.05;;;;;;;29.77;66.36;101129.69;5056803;28;69541;-40
2024/01/15 03:38:44;;;;;;;13.95;12.15;;;;;;;29.77;66.44;101125.09;5036149;28;66465;-41
2024/01/15 03:41:14;;;;;;;13.32;11.90;;;;;;;29.78;66.76;101120.50;5037541;28;70228;-41
2024/01/15 03:43:45;;;;;;;12.82;11.73;;;;;;;29.75;66.51;101104.72;5040390;28;66440;-40
2024/01/15 03:46:15;;;;;;;14.43;12.93;;;;;;;29.88;66.54;101122.81;5039149;28;69839;-41
2024/01/15 03:48:46;;;;;;;14.13;12.80;;;;;;;29.84;66.59;101108.91;5041800;28;66685;-42
2024/01/15 03:51:21;;;;;;;12.73;11.55;;;;;;;29.83;66.57;101099.09;5057398;28;69176;-42
2024/01/15 03:53:52;;;;;;;13.82;12.40;;;;;;;29.94;66.40;101105.75;5052635;28;65548;-41
2024/01/15 03:56:23;;;;;;;14.10;12.70;;;;;;;29.97;66.02;101113.44;5053162;28;70414;-41
2024/01/15 03:58:54;;;;;;;12.85;11.52;;;;;;;29.87;66.53;101086.84;5043291;28;65899;-41
2024/01/15 04:01:25;;;;;;;12.25;11.25;;;;;;;30.02;66.59;101105.53;5059390;28;69602;-41
2024/01/15 04:03:55;;;;;;;13.73;12.05;;;;;;;30.04;66.35;101103.47;5055465;28;66703;-42
2024/01/15 04:06:26;;;;;;;12.77;11.57;;;;;;;30.06;66.29;101095.97;5050008;28;70618;-44
2024/01/15 04:08:57;;;;;;;13.02;11.80;;;;;;;30.10;66.18;101102.63;5047187;28;66321;-40
2024/01/15 04:11:28;;;;;;;11.93;10.93;;;;;;;30.11;65.99;101098.88;5064320;28;69481;-41
2024/01/15 04:13:58;;;;;;;13.20;11.98;;;;;;;30.12;65.86;101094.31;5055548;28;66374;-41
2024/01/15 04:16:29;;;;;;;13.35;12.05;;;;;;;30.16;65.85;101096.38;5045035;28;70948;-41
2024/01/15 04:18:59;;;;;;;13.80;12.40;;;;;;;30.20;66.30;101086.81;5047215;28;67003;-42
2024/01/15 04:21:30;;;;;;;15.47;12.13;;;;;;;30.21;65.78;101082.22;5045345;28;69681;-46
2024/01/15 04:24:01;;;;;;;12.88;11.85;;;;;;;30.24;65.84;101082.66;5047775;28;65638;-42
2024/01/15 04:26:31;;;;;;;13.98;12.55;;;;;;;30.20;66.18;101058.91;5054556;28;70605;-41
2024/01/15 04:29:02;;;;;;;12.65;11.68;;;;;;;30.31;65.78;101076.38;5044302;28;66217;-41
2024/01/15 04:31:33;;;;;;;14.15;11.48;;;;;;;30.33;65.63;101071.59;5038115;28;69471;-41
2024/01/15 04:34:03;;;;;;;12.95;11.68;;;;;;;30.35;65.89;101066.81;5040005;28;66352;-41
2024/01/15 04:36:42;;;;;;;13.10;11.75;;;;;;;30.02;65.31;101002.75;5037975;28;69635;-41
2024/01/15 04:39:12;;;;;;;13.00;11.75;;;;;;;30.40;65.54;101056.19;5038135;28;65879;-41
2024/01/15 04:41:43;;;;;;;13.32;11.93;;;;;;;30.42;65.69;101051.38;5039391;28;69977;-41
2024/01/15 04:44:13;;;;;;;12.65;11.63;;;;;;;30.44;65.25;101044.72;5040780;28;66181;-40
2024/01/15 04:46:44;;;;;;;15.02;11.70;;;;;;;30.45;65.35;101032.84;5050227;28;69962;-40
2024/01/15 04:49:14;;;;;;;13.77;12.30;;;;;;;30.48;65.31;101034.31;5045382;28;66670;-41
2024/01/15 04:51:45;;;;;;;12.02;11.20;;;;;;;30.49;65.28;101033.25;5061103;28;71501;-41
2024/01/15 04:54:18;;;;;;;13.10;11.65;;;;;;;30.45;65.67;101007.63;5043884;28;66014;-42
2024/01/15 04:56:48;;;;;;;12.80;11.55;;;;;;;30.51;65.57;101017.63;5057362;28;70162;-40
2024/01/15 04:59:19;;;;;;;13.10;11.95;;;;;;;30.46;65.29;101002.03;5056985;28;67231;-41
2024/01/15 05:01:49;;;;;;;13.50;12.20;;;;;;;30.56;65.30;101008.84;5057710;28;70205;-42
2024/01/15 05:04:20;;;;;;;13.20;11.82;;;;;;;30.49;65.15;100992.66;5022425;28;66928;-40
2024/01/15 05:06:50;;;;;;;13.95;12.20;;;;;;;30.61;65.08;101001.75;5027087;28;70385;-41
2024/01/15 05:09:21;;;;;;;15.70;12.35;;;;;;;30.60;64.83;100999.25;5032955;28;67007;-42
2024/01/15 05:11:52;;;;;;;12.20;11.20;;;;;;;30.55;65.09;100986.38;5034636;28;68649;-41
2024/01/15 05:14:23;;;;;;;13.35;12.05;;;;;;;30.62;65.30;100987.19;5037829;28;66683;-41
2024/01/15 05:16:54;;;;;;;12.95;11.77;;;;;;;30.66;64.91;100996.50;5054030;28;70196;-40
2024/01/15 05:19:24;;;;;;;13.57;12.30;;;;;;;30.68;65.28;100980.06;5039851;28;65912;-41
2024/01/15 05:21:55;;;;;;;13.23;11.93;;;;;;;30.69;64.69;100979.81;5037769;28;70721;-42
2024/01/15 05:24:26;;;;;;;12.65;11.25;;;;;;;30.67;64.90;100968.41;5042461;28;66644;-42
2024/01/15 05:26:57;;;;;;;12.82;11.63;;;;;;;30.23;64.61;100894.31;5052126;28;70658;-46
2024/01/15 05:29:27;;;;;;;13.98;11.40;;;;;;;30.73;64.68;100967.53;5035771;28;66602;-40
2024/01/15 05:31:58;;;;;;;12.30;11.20;;;;;;;30.75;64.53;100966.47;5040426;28;70361;-41
2024/01/15 05:34:31;;;;;;;12.48;11.32;;;;;;;30.71;64.94;100947.13;5036023;28;67023;-41
2024/01/15 05:37:02;;;;;;;12.77;11.43;;;;;;;30.77;64.48;100950.84;5034057;28;69912;-41
2024/01/15 05:39:32;;;;;;;16.20;10.80;;;;;;;30.80;64.44;100945.03;5031753;28;66637;-41
2024/01/15 05:42:03;;;;;;;12.20;11.18;;;;;;;30.81;64.43;100935.84;5035658;28;70189;-41
2024/01/15 05:44:34;;;;;;;12.95;11.73;;;;;;;30.79;64.54;100927.91;5037309;28;66998;-41
2024/01/15 05:47:04;;;;;;;12.13;10.98;;;;;;;30.83;64.52;100923.75;5036641;28;70310;-41
2024/01/15 05:49:36;;;;;;;10.95;10.05;;;;;;;30.83;64.54;100917.50;5035607;28;67768;-43
2024/01/15 05:52:06;;;;;;;15.30;11.20;;;;;;;30.84;64.54;100914.59;5036982;28;70472;-40
2024/01/15 05:54:37;;;;;;;10.80;10.07;;;;;;;30.84;64.55;100913.72;5037750;28;65993;-41
2024/01/15 05:57:08;;;;;;;11.98;10.95;;;;;;;30.87;64.47;100905.16;5039821;28;70897;-42
2024/01/15 05:59:39;;;;;;;11.25;10.25;;;;;;;30.87;64.49;100897.91;5031904;28;65611;-41
2024/01/15 06:02:10;;;;;;;12.18;11.07;;;;;;;30.92;64.25;100897.22;5050331;28;69788;-40
2024/01/15 06:04:41;;;;;;;12.07;10.98;;;;;;;30.94;64.16;100887.81;5020226;28;66481;-43
2024/01/15 06:07:12;;;;;;;11.63;10.68;;;;;;;30.92;64.42;100879.09;5046833;28;71971;-43
2024/01/15 06:09:42;;;;;;;12.32;11.20;;;;;;;30.80;64.10;100858.38;5045164;28;67088;-41
2024/01/15 06:12:13;;;;;;;12.10;10.63;;;;;;;30.92;64.27;100864.72;5046263;28;70159;-41
2024/01/15 06:14:44;;;;;;;10.85;9.93;;;;;;;31.00;63.98;100869.03;5047917;28;65862;-41
2024/01/15 06:17:14;;;;;;;11.35;10.45;;;;;;;31.03;63.88;100874.81;5041262;28;70090;-41
2024/01/15 06:19:45;;;;;;;11.57;10.68;;;;;;;30.98;63.92;100850.31;5043116;28;66694;-41
2024/01/15 06:22:16;;;;;;;12.20;10.90;;;;;;;31.04;63.70;100856.72;5038057;28;69220;-40
2024/01/15 06:24:46;;;;;;;11.65;10.52;;;;;;;31.10;64.11;100856.66;5039225;28;66011;-40
2024/01/15 06:27:17;;;;;;;11.45;10.35;;;;;;;31.11;63.67;100849.34;5041091;28;70913;-40
2024/01/15 06:29:47;;;;;;;11.40;10.52;;;;;;;31.13;63.79;100848.06;5044919;28;67084;-41
2024/01/15 06:32:19;;;;;;;;;;;;;;;30.94;63.27;100849.91;5039231;28;70063;-40
2024/01/15 06:34:49;;;;;;;11.02;9.98;;;;;;;31.16;63.67;100842.19;5032242;28;65093;-41
2024/01/15 06:37:20;;;;;;;10.65;9.85;;;;;;;31.20;63.80;100841.75;5047786;28;69902;-41
2024/01/15 06:39:50;;;;;;;11.32;10.43;;;;;;;31.23;63.42;100834.03;5036495;28;66195;-41
2024/01/15 06:42:21;;;;;;;14.00;11.00;;;;;;;31.27;63.44;100837.09;5041141;28;69953;-42
2024/01/15 06:44:52;;;;;;;11.00;10.00;;;;;;;31.26;63.43;100830.00;5051482;28;65682;-41
2024/01/15 06:47:23;;;;;;;11.73;10.48;;;;;;;31.24;63.58;100811.28;5045095;28;68985;-41
2024/01/15 06:49:53;;;;;;;11.45;10.45;;;;;;;31.32;63.41;100829.13;5058808;28;66321;-43
2024/01/15 06:52:24;;;;;;;11.90;10.55;;;;;;;31.24;63.55;100805.84;5056965;28;70104;-42
2024/01/15 06:54:54;;;;;;;11.38;10.43;;;;;;;31.36;63.07;100819.53;5058523;28;66663;-40
2024/01/15 06:57:25;;;;;;;11.30;10.25;;;;;;;31.38;63.36;100828.25;5043982;28;69259;-42
2024/01/15 06:59:56;;;;;;;11.20;10.13;;;;;;;31.41;62.90;100821.56;5043069;28;66160;-41
2024/01/15 07:02:26;;;;;;;12.82;10.05;;;;;;;31.42;63.05;100817.78;5042636;28;69876;-42
2024/01/15 07:04:57;;;;;;;10.98;9.82;;;;;;;31.28;62.85;100790.78;5071370;28;66173;-40
2024/01/15 07:07:29;;;;;;;11.38;10.35;;;;;;;31.44;63.02;100816.50;5062238;28;70471;-43
2024/01/15 07:10:00;;;;;;;11.85;10.32;;;;;;;31.48;63.06;100820.44;5058889;28;65174;-41
2024/01/15 07:12:31;;;;;;;10.33;9.33;;;;;;;31.50;63.24;100815.59;5063676;28;69153;-41
2024/01/15 07:15:02;;;;;;;11.57;10.57;;;;;;;31.54;62.99;100811.41;5057214;28;65287;-41
2024/01/15 07:17:32;;;;;;;9.65;8.85;;;;;;;31.54;62.89;100811.41;5040476;28;70783;-40
2024/01/15 07:20:03;;;;;;;10.52;9.65;;;;;;;31.59;63.14;100814.25;5043393;28;66595;-40
2024/01/15 07:22:37;;;;;;;10.10;9.25;;;;;;;31.56;62.66;100809.25;5040560;28;70050;-41
2024/01/15 07:25:08;;;;;;;12.10;10.02;;;;;;;31.32;63.00;100751.38;5042819;28;66767;-42
2024/01/15 07:27:42;;;;;;;10.75;10.00;;;;;;;31.64;62.80;100793.75;5022965;28;68886;-42
2024/01/15 07:30:14;;;;;;;10.57;9.65;;;;;;;31.70;62.89;100796.38;5025015;28;66184;-42
2024/01/15 07:32:45;;;;;;;9.95;9.13;;;;;;;31.71;62.99;100792.63;5039038;28;70427;-41
2024/01/15 07:35:15;;;;;;;9.75;8.98;;;;;;;31.72;62.26;100790.75;5042438;28;66550;-41
2024/01/15 07:37:47;;;;;;;9.77;9.07;;;;;;;31.78;62.76;100795.25;5042258;28;70018;-40
2024/01/15 07:40:17;;;;;;;9.65;9.00;;;;;;;31.77;62.29;100793.59;5038189;28;66517;-40
2024/01/15 07:42:48;;;;;;;9.68;8.98;;;;;;;31.82;62.43;100791.03;5039390;28;70052;-42
2024/01/15 07:45:19;;;;;;;10.15;9.35;;;;;;;31.82;62.40;100796.47;5052355;28;65391;-41
2024/01/15 07:47:49;;;;;;;10.02;9.18;;;;;;;31.76;62.00;100776.50;5060584;28;69675;-41
2024/01/15 07:50:20;;;;;;;9.55;8.85;;;;;;;31.90;61.96;100798.84;5060460;28;65553;-41
2024/01/15 07:52:50;;;;;;;10.07;9.38;;;;;;;31.93;62.21;100793.00;5048778;28;70063;-41
2024/01/15 07:55:21;;;;;;;9.80;8.98;;;;;;;31.89;62.25;100780.09;5049259;28;66686;-41
2024/01/15 07:57:58;;;;;;;9.52;8.75;;;;;;;31.95;62.24;100785.44;5074871;28;70228;-42
2024/01/15 08:00:44;;;;;;;9.77;8.82;;;;;;;32.00;62.29;100785.56;5059929;28;66549;-42
2024/01/15 08:03:15;;;;;;;;;;;;;;;31.81;61.19;100784.75;5060467;28;70611;-41
2024/01/15 08:05:46;;;;;;;9.63;8.88;;;;;;;32.03;61.93;100787.00;5093766;27;66284;-42
2024/01/15 08:08:17;;;;;;;;;;;;;;;31.89;61.37;100790.94;5075487;28;70606;-40
2024/01/15 08:10:48;;;;;;;9.13;8.52;;;;;;;32.07;62.29;100793.66;5051832;28;66488;-41
2024/01/15 08:13:19;;;;;;;10.00;9.02;;;;;;;32.14;62.18;100793.53;5054549;28;70568;-41
2024/01/15 08:15:50;;;;;;;8.93;8.32;;;;;;;32.17;61.91;100793.06;5047683;28;66055;-41
2024/01/15 08:18:21;;;;;;;9.35;8.65;;;;;;;32.20;61.74;100787.19;5034280;28;69350;-41
2024/01/15 08:20:52;;;;;;;8.63;8.02;;;;;;;32.22;61.92;100795.91;5042955;28;66832;-43
2024/01/15 08:23:22;;;;;;;8.68;7.88;;;;;;;32.26;61.77;100786.25;5039137;28;70447;-41
2024/01/15 08:25:53;;;;;;;8.88;8.18;;;;;;;32.27;61.54;100783.31;5039190;28;66500;-40
2024/01/15 08:28:24;;;;;;;9.40;8.70;;;;;;;32.31;61.81;100793.69;5049657;28;70963;-41
2024/01/15 08:30:54;;;;;;;8.80;8.20;;;;;;;32.32;61.47;100793.47;5029862;28;66528;-46
2024/01/15 08:33:25;;;;;;;10.00;9.00;;;;;;;32.33;61.33;100791.59;5032791;28;70201;-43
2024/01/15 08:35:55;;;;;;;9.38;8.60;;;;;;;32.37;61.50;100790.03;5050601;28;65450;-41
2024/01/15 08:38:26;;;;;;;9.85;8.95;;;;;;;32.38;61.30;100795.25;5037251;28;70853;-40
2024/01/15 08:40:58;;;;;;;9.82;9.13;;;;;;;32.39;61.27;100796.09;5039204;28;66695;-41
2024/01/15 08:43:30;;;;;;;10.00;9.25;;;;;;;32.43;61.00;100800.81;5039464;28;69452;-42
2024/01/15 08:46:01;;;;;;;;;;;;;;;32.25;60.12;100803.59;5043002;28;65253;-41
2024/01/15 08:48:32;;;;;;;10.13;9.23;;;;;;;32.43;60.95;100803.53;5031070;28;69052;-42
2024/01/15 08:51:03;;;;;;;10.02;9.32;;;;;;;32.46;61.03;100802.28;5033739;28;66715;-41
2024/01/15 08:53:33;;;;;;;10.32;9.43;;;;;;;32.42;61.07;100801.88;5032402;28;69891;-41
2024/01/15 08:56:05;;;;;;;10.45;9.45;;;;;;;32.46;60.76;100797.66;5062488;28;65632;-41
2024/01/15 08:58:36;;;;;;;9.07;8.45;;;;;;;32.49;61.12;100808.06;5042037;28;70018;-41
2024/01/15 09:01:06;;;;;;;10.23;9.32;;;;;;;32.51;60.88;100807.00;5048935;28;65282;-40
2024/01/15 09:03:37;;;;;;;9.75;8.95;;;;;;;32.52;60.90;100812.19;5043902;28;69519;-41
2024/01/15 09:06:09;;;;;;;10.88;9.77;;;;;;;32.51;60.96;100817.84;5049499;28;66542;-41
2024/01/15 09:08:40;;;;;;;10.25;9.15;;;;;;;32.58;60.95;100824.03;5040665;28;70130;-41
2024/01/15 09:11:10;;;;;;;10.00;9.25;;;;;;;32.55;60.97;100816.34;5041876;28;65493;-41
2024/01/15 09:13:41;;;;;;;12.65;9.95;;;;;;;32.59;60.96;100822.94;5055000;28;70598;-40
2024/01/15 09:16:11;;;;;;;10.35;9.48;;;;;;;32.62;60.93;100822.47;5038342;28;66697;-41
2024/01/15 09:18:42;;;;;;;11.70;10.23;;;;;;;32.64;60.64;100829.34;5026696;28;69849;-40
2024/01/15 09:21:13;;;;;;;12.75;10.40;;;;;;;32.66;61.09;100823.69;5041579;28;66252;-42
2024/01/15 09:23:43;;;;;;;13.63;11.10;;;;;;;32.61;60.99;100831.69;5041307;28;70634;-42
2024/01/15 09:26:14;;;;;;;16.25;10.75;;;;;;;32.49;61.31;100821.63;5058401;28;66071;-41
2024/01/15 09:28:44;;;;;;;11.60;10.40;;;;;;;32.58;61.15;100833.00;5051188;28;70738;-40
2024/01/15 09:31:17;;;;;;;12.53;11.43;;;;;;;32.61;61.50;100837.13;5056078;28;66140;-41
2024/01/15 09:33:48;;;;;;;14.52;11.93;;;;;;;32.60;61.77;100841.75;5045365;28;70381;-42
2024/01/15 09:36:18;;;;;;;15.05;11.75;;;;;;;32.62;61.96;100838.78;5058627;28;65776;-41
2024/01/15 09:38:49;;;;;;;12.77;11.43;;;;;;;32.61;61.97;100832.50;5056639;28;70171;-41
2024/01/15 09:41:20;;;;;;;13.23;10.77;;;;;;;32.46;62.10;100802.28;5056099;28;66067;-41
2024/01/15 09:43:50;;;;;;;12.68;11.45;;;;;;;32.69;61.61;100850.38;5058029;28;69661;-41
2024/01/15 09:46:21;;;;;;;13.32;10.85;;;;;;;32.69;61.86;100844.94;5057550;28;65582;-41
2024/01/15 09:48:52;;;;;;;12.73;11.45;;;;;;;32.60;61.97;100830.88;5044647;28;69184;-42
2024/01/15 09:51:24;;;;;;;19.50;11.63;;;;;;;32.59;61.90;100840.06;5038871;28;66118;-40
2024/01/15 09:53:56;;;;;;;16.10;11.48;;;;;;;32.75;61.89;100859.47;5041764;28;69881;-41
2024/01/15 09:56:27;;;;;;;15.25;11.85;;;;;;;32.75;62.09;100860.28;5042535;28;66123;-40
2024/01/15 09:59:00;;;;;;;16.85;13.05;;;;;;;32.74;61.86;100863.25;5032618;28;69872;-41
2024/01/15 10:01:32;;;;;;;12.88;11.68;;;;;;;32.75;62.13;100862.19;5044734;28;66579;-41
2024/01/15 10:04:03;;;;;;;16.38;11.95;;;;;;;32.77;61.77;100877.19;5039061;28;70742;-40
2024/01/15 10:06:35;;;;;;;14.82;11.48;;;;;;;32.71;62.37;100875.41;5050511;28;65698;-40
2024/01/15 10:09:07;;;;;;;15.10;12.30;;;;;;;32.78;62.17;100886.16;5080995;28;69959;-40
2024/01/15 10:11:38;;;;;;;11.98;10.65;;;;;;;32.77;62.43;100877.19;5049303;28;66459;-40
2024/01/15 10:14:13;;;;;;;21.25;11.95;;;;;;;32.72;62.56;100877.06;5060041;28;70176;-42
2024/01/15 10:16:43;;;;;;;15.52;11.80;;;;;;;32.79;62.72;100883.22;5044283;28;66457;-41
2024/01/15 10:19:14;;;;;;;13.23;10.30;;;;;;;32.78;63.11;100884.28;5043594;28;70450;-40
2024/01/15 10:21:46;;;;;;;12.35;10.07;;;;;;;32.80;62.93;100893.03;5043171;28;66785;-40
2024/01/15 10:24:17;;;;;;;14.88;10.50;;;;;;;32.73;62.94;100895.00;5021840;28;70474;-41
2024/01/15 10:26:48;;;;;;;13.15;10.70;;;;;;;32.71;64.12;100906.13;5043098;28;65738;-40
2024/01/15 10:29:19;;;;;;;15.30;10.13;;;;;;;32.45;65.60;100895.59;5041970;28;69822;-41
2024/01/15 10:31:49;;;;;;;15.70;10.00;;;;;;;32.45;65.63;100904.56;5044249;28;66137;-39
2024/01/15 10:34:20;;;;;;;14.00;11.20;;;;;;;32.24;67.08;100902.38;5059476;28;70610;-41
2024/01/15 10:36:55;;;;;;;18.45;12.40;;;;;;;32.27;67.74;100918.19;5058244;28;66284;-40
2024/01/15 10:39:26;;;;;;;22.83;12.02;;;;;;;32.13;67.44;100900.44;5043465;28;70266;-39
2024/01/15 10:41:56;;;;;;;17.13;11.70;;;;;;;32.16;68.33;100917.09;5044712;28;66277;-40
2024/01/15 10:44:27;;;;;;;17.73;10.97;;;;;;;32.14;68.26;100923.78;5058153;28;70593;-41
2024/01/15 10:46:58;;;;;;;21.75;10.85;;;;;;;32.11;68.76;100913.41;5052841;28;65973;-39
2024/01/15 10:49:30;;;;;;;15.50;9.88;;;;;;;31.99;68.92;100911.44;5032717;28;70786;-40
2024/01/15 10:52:03;;;;;;;17.23;9.50;;;;;;;32.11;68.84;100924.25;5054909;28;65495;-41
2024/01/15 10:54:37;;;;;;;16.20;9.18;;;;;;;32.10;68.37;100923.44;5043984;28;70261;-41
2024/01/15 10:57:08;;;;;;;18.20;9.75;;;;;;;32.07;68.90;100923.03;5044093;28;65236;-40
2024/01/15 10:59:38;;;;;;;18.23;8.80;;;;;;;32.07;68.18;100929.31;5045261;28;70479;-40
2024/01/15 11:02:10;;;;;;;21.15;9.18;;;;;;;32.07;67.70;100934.75;5043806;28;66577;-40
2024/01/15 11:04:41;;;;;;;13.63;8.82;;;;;;;32.00;69.52;100934.81;5044807;28;70562;-41
2024/01/15 11:07:11;;;;;;;28.20;10.93;;;;;;;31.96;69.61;100936.31;5060480;28;66086;-42
2024/01/15 11:09:42;;;;;;;16.90;9.20;;;;;;;31.94;69.46;100926.75;5040963;28;68833;-41
2024/01/15 11:12:15;;;;;;;19.27;9.45;;;;;;;31.90;70.73;100929.06;5047020;28;66491;-42
2024/01/15 11:14:49;;;;;;;16.33;9.82;;;;;;;31.73;68.02;100884.59;5040835;28;69557;-41
2024/01/15 11:17:19;;;;;;;18.23;8.00;;;;;;;32.10;67.76;100938.88;5041061;28;66830;-40
2024/01/15 11:19:51;;;;;;;16.00;8.05;;;;;;;31.89;67.41;100889.41;5053594;28;70361;-40
2024/01/15 11:22:31;;;;;;;15.55;8.02;;;;;;;32.22;68.54;100942.47;5059459;28;66578;-41
2024/01/15 11:25:29;;;;;;;15.25;7.80;;;;;;;32.18;67.12;100931.25;5042822;28;69923;-41
2024/01/15 11:28:00;;;;;;;8.88;7.35;;;;;;;32.23;66.58;100934.13;5042167;28;66414;-41
2024/01/15 11:30:31;;;;;;;7.93;6.70;;;;;;;32.30;66.68;100947.59;5023031;28;69957;-41